Time;durP1;ratioP1;P1;durP2;ratioP2;P2;SDS_P1;SDS_P2;PMS_P1;PMS_P2;Temp;Humidity;BMP_temperature;BMP_pressure;BME280_temperature;BME280_humidity;BME280_pressure;Samples;Min_cycle;Max_cycle;Signal;HPM_P1;HPM_P2
2022/05/24 00:01:33;;;;;;;1.85;1.48;;;;;;;;;;5015354;28;20359;-83
2022/05/24 00:04:03;;;;;;;1.83;1.50;;;;;;;;;;5014691;28;20037;-82
2022/05/24 00:06:33;;;;;;;13.40;2.15;;;;;;;;;;5024384;28;20018;-83
2022/05/24 00:08:58;;;;;;;2.65;1.83;;;;;;;;;;5014512;28;20029;-83
2022/05/24 00:11:24;;;;;;;3.30;2.10;;;;;;;;;;4998299;28;20478;-82
2022/05/24 00:13:52;;;;;;;3.95;2.15;;;;;;;;;;5007165;28;20026;-82
2022/05/24 00:16:21;;;;;;;4.47;3.63;;;;;;;;;;5014571;28;20044;-83
2022/05/24 00:18:47;;;;;;;5.40;2.92;;;;;;;;;;5013560;28;20038;-83
2022/05/24 00:21:13;;;;;;;5.20;2.85;;;;;;;;;;5014692;28;20415;-83
2022/05/24 00:23:38;;;;;;;3.17;2.53;;;;;;;;;;5014353;28;20069;-82
2022/05/24 00:26:07;;;;;;;1.98;1.77;;;;;;;;;;5014307;28;20030;-81
2022/05/24 00:28:36;;;;;;;5.00;2.50;;;;;;;;;;5014156;28;20029;-82
2022/05/24 00:31:04;;;;;;;4.28;2.92;;;;;;;;;;5013312;28;20127;-82
2022/05/24 00:33:34;;;;;;;4.60;3.45;;;;;;;;;;5031207;28;20030;-82
2022/05/24 00:36:00;;;;;;;2.90;2.30;;;;;;;;;;5013416;28;20431;-80
2022/05/24 00:38:30;;;;;;;5.78;2.17;;;;;;;;;;5013639;28;20117;-83
2022/05/24 00:41:26;;;;;;;3.33;2.35;;;;;;;;;;5011127;28;20041;-83
2022/05/24 00:44:02;;;;;;;3.03;2.55;;;;;;;;;;5010834;28;20119;-83
2022/05/24 00:46:56;;;;;;;2.88;2.42;;;;;;;;;;5012774;28;20034;-84
2022/05/24 00:49:52;;;;;;;2.47;2.15;;;;;;;;;;5005970;28;20494;-83
2022/05/24 00:52:24;;;;;;;2.08;1.88;;;;;;;;;;5026418;28;20177;-82
2022/05/24 00:54:49;;;;;;;;;;;;;;;;;;5014633;28;20454;-81
2022/05/24 00:57:40;;;;;;;1.67;1.58;;;;;;;;;;5012305;28;19917;-80
2022/05/24 01:00:07;;;;;;;11.07;2.63;;;;;;;;;;5013517;28;20035;-82
2022/05/24 01:02:36;;;;;;;1.63;1.52;;;;;;;;;;5007448;28;20501;-83
2022/05/24 01:05:05;;;;;;;2.10;1.70;;;;;;;;;;5013781;28;20062;-82
2022/05/24 01:07:36;;;;;;;2.90;2.58;;;;;;;;;;5014547;28;20029;-80
2022/05/24 01:10:09;;;;;;;2.72;2.47;;;;;;;;;;5012437;28;20094;-82
2022/05/24 01:12:37;;;;;;;5.22;1.58;;;;;;;;;;5013038;28;20045;-82
2022/05/24 01:15:06;;;;;;;1.83;1.73;;;;;;;;;;5009479;28;20525;-82
2022/05/24 01:17:34;;;;;;;1.63;1.52;;;;;;;;;;4997200;28;20034;-80
2022/05/24 01:20:00;;;;;;;2.30;2.10;;;;;;;;;;5012629;28;20034;-82
2022/05/24 01:22:33;;;;;;;3.72;2.67;;;;;;;;;;5012515;28;20030;-83
2022/05/24 01:25:29;;;;;;;3.72;2.85;;;;;;;;;;5013925;28;20025;-83
2022/05/24 01:27:55;;;;;;;4.22;2.35;;;;;;;;;;5014403;28;20505;-83
2022/05/24 01:30:23;;;;;;;1.65;1.08;;;;;;;;;;5011766;28;20030;-82
2022/05/24 01:38:21;;;;;;;3.05;2.60;;;;;;;;;;5012545;28;20362;-85
2022/05/24 01:40:48;;;;;;;2.97;2.78;;;;;;;;;;5013816;28;20366;-83
2022/05/24 01:43:18;;;;;;;1.52;1.40;;;;;;;;;;5014086;28;20459;-83
2022/05/24 01:45:57;;;;;;;1.95;1.33;;;;;;;;;;5014643;28;20055;-83
2022/05/24 01:48:32;;;;;;;2.65;2.15;;;;;;;;;;5013593;28;20033;-85
2022/05/24 01:51:01;;;;;;;3.20;2.05;;;;;;;;;;5008620;28;20348;-83
2022/05/24 01:53:34;;;;;;;2.08;1.75;;;;;;;;;;5011089;28;20021;-83
2022/05/24 01:56:02;;;;;;;4.57;3.15;;;;;;;;;;5013053;28;20026;-82
2022/05/24 01:58:35;;;;;;;2.70;2.03;;;;;;;;;;4987760;28;20049;-82
2022/05/24 02:01:10;;;;;;;2.88;2.67;;;;;;;;;;5012118;28;20028;-82
2022/05/24 02:03:35;;;;;;;2.25;2.00;;;;;;;;;;5012243;28;20116;-83
2022/05/24 02:06:21;;;;;;;3.30;2.55;;;;;;;;;;5012115;28;20117;-81
2022/05/24 02:08:46;;;;;;;1.15;1.10;;;;;;;;;;5013565;28;20108;-81
2022/05/24 02:11:12;;;;;;;1.67;1.58;;;;;;;;;;4994833;28;20123;-82
2022/05/24 02:13:39;;;;;;;3.83;2.35;;;;;;;;;;4995580;28;20112;-82
2022/05/24 02:16:09;;;;;;;1.02;0.93;;;;;;;;;;5011563;28;20045;-82
2022/05/24 02:18:35;;;;;;;4.20;3.30;;;;;;;;;;4996014;28;20383;-81
2022/05/24 02:21:01;;;;;;;1.83;1.73;;;;;;;;;;5012158;28;20033;-82
2022/05/24 02:23:27;;;;;;;3.17;2.83;;;;;;;;;;4995923;28;20026;-81
2022/05/24 02:26:00;;;;;;;2.58;2.28;;;;;;;;;;4994141;28;20037;-81
2022/05/24 02:28:30;;;;;;;2.88;2.60;;;;;;;;;;5009060;28;20026;-81
2022/05/24 02:31:00;;;;;;;3.58;3.13;;;;;;;;;;5011188;28;20037;-82
2022/05/24 02:33:26;;;;;;;2.80;2.20;;;;;;;;;;5013865;28;20029;-80
2022/05/24 02:35:55;;;;;;;2.58;1.92;;;;;;;;;;5011967;28;20026;-79
2022/05/24 02:38:22;;;;;;;4.10;3.28;;;;;;;;;;5011828;28;20109;-79
2022/05/24 02:43:34;;;;;;;1.58;1.48;;;;;;;;;;5013144;28;20049;-80
2022/05/24 02:46:00;;;;;;;3.53;3.22;;;;;;;;;;4996523;28;20025;-80
2022/05/24 02:48:25;;;;;;;2.45;1.73;;;;;;;;;;5012698;28;20083;-81
2022/05/24 02:50:51;;;;;;;5.50;1.55;;;;;;;;;;5013026;28;20026;-81
2022/05/24 02:53:16;;;;;;;3.47;3.13;;;;;;;;;;5012644;28;20029;-82
2022/05/24 02:55:44;;;;;;;2.25;2.10;;;;;;;;;;5017293;28;20030;-83
2022/05/24 02:58:11;;;;;;;3.38;1.92;;;;;;;;;;5016733;28;20025;-82
2022/05/24 03:00:39;;;;;;;3.67;1.65;;;;;;;;;;5016582;28;20328;-82
2022/05/24 03:03:07;;;;;;;2.45;1.75;;;;;;;;;;5016245;28;20172;-81
2022/05/24 03:05:34;;;;;;;5.00;2.17;;;;;;;;;;4999958;28;20033;-80
2022/05/24 03:10:49;;;;;;;3.00;2.38;;;;;;;;;;5016622;28;20411;-80
2022/05/24 03:16:09;;;;;;;3.72;2.38;;;;;;;;;;5005834;28;20652;-81
2022/05/24 03:18:40;;;;;;;0.88;0.88;;;;;;;;;;5032397;28;20116;-81
2022/05/24 03:21:08;;;;;;;1.60;1.50;;;;;;;;;;5015816;28;20022;-81
2022/05/24 03:23:33;;;;;;;2.15;1.10;;;;;;;;;;4998597;28;20068;-78
2022/05/24 03:26:01;;;;;;;1.75;1.15;;;;;;;;;;5016395;28;20064;-83
2022/05/24 03:28:27;;;;;;;1.35;1.15;;;;;;;;;;5016695;28;20471;-81
2022/05/24 03:30:56;;;;;;;3.33;1.90;;;;;;;;;;5016295;28;20053;-82
2022/05/24 03:33:25;;;;;;;2.53;1.15;;;;;;;;;;5015593;28;20069;-81
2022/05/24 03:35:55;;;;;;;0.68;0.68;;;;;;;;;;5015695;28;20033;-81
2022/05/24 03:38:20;;;;;;;1.92;1.58;;;;;;;;;;5011572;28;20022;-82
2022/05/24 03:40:45;;;;;;;1.95;1.55;;;;;;;;;;5016014;28;20025;-80
2022/05/24 03:43:12;;;;;;;1.17;0.85;;;;;;;;;;5015519;28;20108;-80
2022/05/24 03:45:41;;;;;;;0.40;0.28;;;;;;;;;;5016397;28;20158;-83
2022/05/24 03:48:07;;;;;;;1.50;1.05;;;;;;;;;;4998927;28;20344;-80
2022/05/24 03:50:32;;;;;;;1.27;0.73;;;;;;;;;;5015295;28;20040;-81
2022/05/24 03:52:58;;;;;;;0.40;0.40;;;;;;;;;;4999671;28;20359;-81
2022/05/24 03:55:28;;;;;;;2.00;0.75;;;;;;;;;;5015029;28;20107;-80
2022/05/24 03:58:02;;;;;;;0.28;0.28;;;;;;;;;;5014238;28;20041;-82
2022/05/24 04:00:32;;;;;;;1.35;1.05;;;;;;;;;;5015001;28;20038;-81
2022/05/24 04:02:58;;;;;;;1.65;0.95;;;;;;;;;;5014791;28;20041;-80
2022/05/24 04:05:30;;;;;;;4.00;0.40;;;;;;;;;;5014523;28;20022;-80
2022/05/24 04:07:55;;;;;;;0.57;0.57;;;;;;;;;;5016376;28;20104;-78
2022/05/24 04:10:23;;;;;;;0.95;0.43;;;;;;;;;;5017200;28;20369;-79
2022/05/24 04:12:48;;;;;;;1.63;1.48;;;;;;;;;;5015344;28;20034;-80
2022/05/24 04:15:17;;;;;;;0.57;0.57;;;;;;;;;;5015162;28;20033;-80
2022/05/24 04:17:43;;;;;;;0.82;0.75;;;;;;;;;;5015054;28;20022;-80
2022/05/24 04:20:09;;;;;;;2.55;1.98;;;;;;;;;;5015781;28;20104;-82
2022/05/24 04:22:35;;;;;;;1.10;1.00;;;;;;;;;;5016123;28;20034;-81
2022/05/24 04:25:01;;;;;;;0.35;0.35;;;;;;;;;;5015059;28;20030;-80
2022/05/24 04:27:29;;;;;;;0.45;0.45;;;;;;;;;;5010035;28;20018;-81
2022/05/24 04:29:56;;;;;;;0.60;0.60;;;;;;;;;;5015978;28;20088;-80
2022/05/24 04:32:22;;;;;;;0.60;0.60;;;;;;;;;;5013390;28;20088;-81
2022/05/24 04:34:50;;;;;;;0.52;0.52;;;;;;;;;;5014420;28;20038;-81
2022/05/24 04:37:20;;;;;;;0.00;0.00;;;;;;;;;;5015500;28;20043;-81
2022/05/24 04:39:46;;;;;;;0.50;0.50;;;;;;;;;;5015202;28;20496;-80
2022/05/24 04:42:21;;;;;;;0.70;0.57;;;;;;;;;;5015724;28;20050;-81
2022/05/24 04:44:49;;;;;;;0.60;0.60;;;;;;;;;;5014762;28;20104;-81
2022/05/24 04:47:14;;;;;;;2.42;1.08;;;;;;;;;;5015566;28;20056;-81
2022/05/24 04:49:42;;;;;;;5.43;2.40;;;;;;;;;;4995651;28;20160;-81
2022/05/24 04:52:12;;;;;;;0.80;0.80;;;;;;;;;;5014906;28;20062;-82
2022/05/24 04:54:38;;;;;;;0.82;0.57;;;;;;;;;;5015372;28;20034;-82
2022/05/24 04:57:05;;;;;;;0.32;0.32;;;;;;;;;;5014607;28;20109;-82
2022/05/24 04:59:33;;;;;;;1.77;1.23;;;;;;;;;;5014440;28;20367;-81
2022/05/24 05:01:59;;;;;;;1.55;1.45;;;;;;;;;;5012853;28;20041;-81
2022/05/24 05:04:24;;;;;;;1.63;0.80;;;;;;;;;;5012794;28;20136;-82
2022/05/24 05:06:53;;;;;;;0.57;0.43;;;;;;;;;;5014333;28;20021;-80
2022/05/24 05:09:19;;;;;;;0.20;0.20;;;;;;;;;;5014737;28;20037;-81
2022/05/24 05:11:44;;;;;;;0.85;0.28;;;;;;;;;;5015181;28;20040;-81
2022/05/24 05:14:12;;;;;;;0.40;0.40;;;;;;;;;;5015270;28;20101;-82
2022/05/24 05:16:38;;;;;;;0.45;0.45;;;;;;;;;;5014492;28;20029;-83
2022/05/24 05:19:08;;;;;;;0.90;0.85;;;;;;;;;;5007554;28;20053;-82
2022/05/24 05:21:35;;;;;;;2.28;1.27;;;;;;;;;;5015056;28;20022;-82
2022/05/24 05:24:04;;;;;;;0.88;0.88;;;;;;;;;;5013502;28;20440;-76
2022/05/24 05:26:30;;;;;;;0.55;0.55;;;;;;;;;;5005244;28;20111;-76
2022/05/24 05:28:56;;;;;;;0.38;0.38;;;;;;;;;;5008824;28;20034;-75
2022/05/24 05:31:26;;;;;;;0.75;0.68;;;;;;;;;;5026422;28;20034;-77
2022/05/24 05:33:56;;;;;;;0.77;0.77;;;;;;;;;;5011957;28;20029;-75
2022/05/24 05:36:24;;;;;;;0.20;0.20;;;;;;;;;;5013009;28;20442;-77
2022/05/24 05:38:50;;;;;;;6.70;0.80;;;;;;;;;;5013842;28;20813;-75
2022/05/24 05:41:18;;;;;;;3.45;1.27;;;;;;;;;;5013663;28;20097;-76
2022/05/24 05:43:44;;;;;;;2.20;0.88;;;;;;;;;;5014750;28;20022;-77
2022/05/24 05:46:11;;;;;;;0.80;0.75;;;;;;;;;;5030023;28;20351;-76
2022/05/24 05:48:39;;;;;;;1.08;0.20;;;;;;;;;;5014706;28;20430;-77
2022/05/24 05:51:05;;;;;;;0.45;0.45;;;;;;;;;;5013135;28;20451;-78
2022/05/24 05:53:33;;;;;;;0.63;0.43;;;;;;;;;;5012633;28;20548;-77
2022/05/24 05:56:07;;;;;;;0.20;0.20;;;;;;;;;;5013271;28;20026;-77
2022/05/24 05:58:32;;;;;;;0.30;0.30;;;;;;;;;;5014489;28;20105;-76
2022/05/24 06:00:57;;;;;;;0.00;0.00;;;;;;;;;;5014211;28;20125;-77
2022/05/24 06:03:25;;;;;;;0.30;0.30;;;;;;;;;;5011790;28;20041;-78
2022/05/24 06:05:52;;;;;;;0.68;0.68;;;;;;;;;;5012619;28;20041;-78
2022/05/24 06:08:19;;;;;;;26.52;5.70;;;;;;;;;;5009726;28;20057;-77
2022/05/24 06:10:45;;;;;;;1.58;1.48;;;;;;;;;;5014019;28;20029;-79
2022/05/24 06:13:12;;;;;;;0.90;0.50;;;;;;;;;;4996688;28;20026;-77
2022/05/24 06:15:38;;;;;;;0.63;0.40;;;;;;;;;;5014052;28;20087;-78
2022/05/24 06:18:04;;;;;;;4.22;2.70;;;;;;;;;;5011660;28;20104;-77
2022/05/24 06:20:31;;;;;;;1.85;1.42;;;;;;;;;;5013040;28;20120;-79
2022/05/24 06:22:57;;;;;;;1.23;0.70;;;;;;;;;;5013842;28;20625;-78
2022/05/24 06:25:25;;;;;;;0.10;0.10;;;;;;;;;;5012635;28;20036;-78
2022/05/24 06:27:53;;;;;;;2.28;1.15;;;;;;;;;;5013237;28;20025;-77
2022/05/24 06:30:20;;;;;;;0.38;0.38;;;;;;;;;;5016338;28;20029;-77
2022/05/24 06:32:49;;;;;;;0.45;0.45;;;;;;;;;;5017948;28;20052;-77
2022/05/24 06:35:18;;;;;;;0.45;0.45;;;;;;;;;;5018246;28;20331;-77
2022/05/24 06:37:43;;;;;;;0.43;0.43;;;;;;;;;;5014024;28;20024;-76
2022/05/24 06:40:14;;;;;;;0.35;0.35;;;;;;;;;;5016458;28;20100;-77
2022/05/24 06:42:41;;;;;;;0.85;0.40;;;;;;;;;;5016541;28;20021;-77
2022/05/24 06:45:08;;;;;;;2.65;0.80;;;;;;;;;;5033425;28;20375;-76
2022/05/24 06:47:37;;;;;;;1.00;0.93;;;;;;;;;;5017760;28;20026;-79
2022/05/24 06:50:03;;;;;;;5.47;0.95;;;;;;;;;;5017998;28;20022;-77
2022/05/24 06:52:28;;;;;;;2.63;1.10;;;;;;;;;;5014377;28;20030;-78
2022/05/24 06:54:56;;;;;;;0.20;0.20;;;;;;;;;;5017385;28;20351;-77
2022/05/24 06:57:21;;;;;;;0.77;0.52;;;;;;;;;;5010950;28;20057;-79
2022/05/24 07:02:31;;;;;;;1.60;0.55;;;;;;;;;;5018014;28;20040;-79
2022/05/24 07:05:08;;;;;;;0.30;0.22;;;;;;;;;;5017958;28;20022;-79
2022/05/24 07:07:34;;;;;;;0.05;0.05;;;;;;;;;;5014787;28;20061;-78
2022/05/24 07:10:04;;;;;;;0.03;0.03;;;;;;;;;;5017666;28;20502;-79
2022/05/24 07:12:29;;;;;;;1.30;1.20;;;;;;;;;;5017639;28;20129;-78
2022/05/24 07:14:57;;;;;;;2.85;0.40;;;;;;;;;;5017575;28;20108;-77
2022/05/24 07:17:23;;;;;;;0.30;0.13;;;;;;;;;;5016692;28;20022;-79
2022/05/24 07:19:48;;;;;;;0.35;0.32;;;;;;;;;;5016705;28;20032;-78
2022/05/24 07:22:14;;;;;;;2.50;0.93;;;;;;;;;;5013982;28;20442;-79
2022/05/24 07:24:42;;;;;;;0.20;0.20;;;;;;;;;;5016585;28;20041;-77
2022/05/24 07:27:12;;;;;;;1.50;0.93;;;;;;;;;;5015675;28;20026;-77
2022/05/24 07:29:39;;;;;;;0.00;0.00;;;;;;;;;;5016727;28;20026;-75
2022/05/24 07:32:05;;;;;;;1.45;0.17;;;;;;;;;;5014576;28;20058;-77
2022/05/24 07:34:32;;;;;;;22.88;1.25;;;;;;;;;;5017135;28;20069;-78
2022/05/24 07:37:06;;;;;;;0.30;0.30;;;;;;;;;;5016321;28;20037;-77
2022/05/24 07:39:31;;;;;;;0.13;0.13;;;;;;;;;;5016643;28;20034;-77
2022/05/24 07:47:18;;;;;;;0.25;0.25;;;;;;;;;;5016656;28;20072;-76
2022/05/24 07:49:46;;;;;;;0.10;0.10;;;;;;;;;;5014585;28;20050;-76
2022/05/24 07:52:14;;;;;;;0.05;0.05;;;;;;;;;;5015102;28;20044;-76
2022/05/24 07:54:41;;;;;;;0.00;0.00;;;;;;;;;;5015854;28;20032;-76
2022/05/24 07:57:10;;;;;;;0.17;0.13;;;;;;;;;;5014766;28;20041;-76
2022/05/24 07:59:37;;;;;;;0.10;0.05;;;;;;;;;;5015084;28;20120;-76
2022/05/24 08:02:03;;;;;;;0.05;0.05;;;;;;;;;;5016005;28;20018;-75
2022/05/24 08:04:29;;;;;;;0.15;0.15;;;;;;;;;;5014902;28;20634;-75
2022/05/24 08:06:55;;;;;;;0.45;0.45;;;;;;;;;;5016853;28;20064;-76
2022/05/24 08:09:21;;;;;;;0.17;0.17;;;;;;;;;;5016508;28;20045;-76
2022/05/24 08:11:46;;;;;;;0.30;0.30;;;;;;;;;;5015513;28;20054;-75
2022/05/24 08:14:11;;;;;;;0.57;0.40;;;;;;;;;;5015815;28;20076;-76
2022/05/24 08:16:42;;;;;;;0.43;0.43;;;;;;;;;;5013473;28;20022;-74
2022/05/24 08:19:08;;;;;;;2.35;2.10;;;;;;;;;;5016361;28;20038;-76
2022/05/24 08:21:36;;;;;;;0.85;0.85;;;;;;;;;;4999371;28;20101;-76
2022/05/24 08:24:04;;;;;;;0.28;0.22;;;;;;;;;;5015323;28;20030;-76
2022/05/24 08:26:30;;;;;;;2.00;1.15;;;;;;;;;;5014160;28;20041;-76
2022/05/24 08:28:58;;;;;;;0.85;0.47;;;;;;;;;;5016024;28;20026;-77
2022/05/24 08:31:23;;;;;;;0.63;0.63;;;;;;;;;;5015010;28;20442;-76
2022/05/24 08:33:50;;;;;;;0.20;0.20;;;;;;;;;;5016043;28;20109;-76
2022/05/24 08:36:18;;;;;;;0.65;0.52;;;;;;;;;;5015905;28;20101;-75
2022/05/24 08:38:43;;;;;;;0.47;0.10;;;;;;;;;;5014309;28;20034;-75
2022/05/24 08:41:27;;;;;;;0.40;0.40;;;;;;;;;;5014572;28;20028;-75
2022/05/24 08:43:55;;;;;;;0.00;0.00;;;;;;;;;;4998154;28;20056;-76
2022/05/24 08:49:18;;;;;;;0.68;0.68;;;;;;;;;;5014841;28;20145;-76
2022/05/24 08:51:53;;;;;;;0.22;0.22;;;;;;;;;;5014537;28;20442;-76
2022/05/24 08:54:20;;;;;;;0.20;0.20;;;;;;;;;;4998442;28;20026;-75
2022/05/24 08:56:48;;;;;;;0.05;0.05;;;;;;;;;;5012933;28;21749;-77
2022/05/24 08:59:19;;;;;;;1.20;0.63;;;;;;;;;;5014115;28;20036;-76
2022/05/24 09:01:45;;;;;;;7.10;0.50;;;;;;;;;;5015590;28;20072;-77
2022/05/24 09:04:12;;;;;;;1.13;0.88;;;;;;;;;;5015551;28;20032;-77
2022/05/24 09:07:16;;;;;;;0.60;0.32;;;;;;;;;;5014840;28;20100;-76
2022/05/24 09:09:54;;;;;;;9.43;1.38;;;;;;;;;;5007217;28;20073;-76
2022/05/24 09:12:50;;;;;;;6.03;0.57;;;;;;;;;;5015356;28;20073;-77
2022/05/24 09:15:26;;;;;;;0.88;0.77;;;;;;;;;;4995626;28;20030;-76
2022/05/24 09:18:18;;;;;;;0.35;0.35;;;;;;;;;;4995621;28;20049;-75
2022/05/24 09:20:44;;;;;;;0.10;0.10;;;;;;;;;;4995601;28;20030;-74
2022/05/24 09:23:29;;;;;;;0.75;0.28;;;;;;;;;;5010430;28;20034;-75
2022/05/24 09:26:02;;;;;;;0.90;0.45;;;;;;;;;;5012994;28;20026;-75
2022/05/24 09:28:55;;;;;;;0.20;0.20;;;;;;;;;;5012002;28;20030;-74
2022/05/24 09:31:30;;;;;;;11.02;0.80;;;;;;;;;;5013262;28;20418;-75
2022/05/24 09:34:17;;;;;;;3.75;0.95;;;;;;;;;;5013046;28;20108;-75
2022/05/24 09:36:57;;;;;;;0.20;0.20;;;;;;;;;;5012992;28;20157;-76
2022/05/24 09:39:23;;;;;;;0.20;0.20;;;;;;;;;;5014200;28;20038;-76
2022/05/24 09:42:29;;;;;;;1.20;0.20;;;;;;;;;;5013210;28;20569;-75
2022/05/24 09:45:01;;;;;;;1.65;1.10;;;;;;;;;;5004843;28;20033;-75
2022/05/24 09:47:49;;;;;;;0.00;0.00;;;;;;;;;;4997745;28;20403;-75
2022/05/24 09:50:17;;;;;;;1.17;0.73;;;;;;;;;;5012789;28;20046;-76
2022/05/24 09:53:03;;;;;;;0.25;0.25;;;;;;;;;;5012814;28;20112;-76
2022/05/24 09:55:30;;;;;;;1.20;1.02;;;;;;;;;;5014802;28;20133;-77
2022/05/24 09:58:36;;;;;;;0.30;0.30;;;;;;;;;;5014929;28;20033;-77
2022/05/24 10:01:15;;;;;;;0.38;0.38;;;;;;;;;;5013453;28;20068;-79
2022/05/24 10:03:42;;;;;;;1.83;0.95;;;;;;;;;;5007318;28;20108;-78
2022/05/24 10:06:25;;;;;;;0.28;0.28;;;;;;;;;;5010266;28;20037;-77
2022/05/24 10:08:54;;;;;;;0.63;0.63;;;;;;;;;;5004477;28;20052;-76
2022/05/24 10:11:25;;;;;;;0.10;0.10;;;;;;;;;;5006201;28;20030;-76
2022/05/24 10:14:22;;;;;;;0.63;0.47;;;;;;;;;;5007803;28;20383;-79
2022/05/24 10:16:52;;;;;;;0.52;0.43;;;;;;;;;;5008295;28;20069;-80
2022/05/24 10:19:30;;;;;;;0.73;0.73;;;;;;;;;;5010454;28;20119;-83
2022/05/24 10:22:16;;;;;;;0.57;0.38;;;;;;;;;;5012318;28;20018;-82
2022/05/24 10:24:59;;;;;;;0.00;0.00;;;;;;;;;;5012091;28;20034;-84
2022/05/24 10:27:57;;;;;;;0.13;0.13;;;;;;;;;;5012061;28;20034;-80
2022/05/24 10:31:05;;;;;;;0.15;0.15;;;;;;;;;;5011932;28;20056;-82
2022/05/24 10:39:39;;;;;;;0.05;0.05;;;;;;;;;;5014002;28;20032;-80
2022/05/24 10:42:43;;;;;;;0.25;0.25;;;;;;;;;;5013655;28;20462;-79
2022/05/24 10:45:16;;;;;;;0.25;0.13;;;;;;;;;;5014697;28;20036;-81
2022/05/24 10:47:59;;;;;;;0.55;0.55;;;;;;;;;;5013185;28;20036;-79
2022/05/24 10:50:34;;;;;;;0.03;0.03;;;;;;;;;;5013734;28;20026;-80
2022/05/24 10:53:09;;;;;;;2.08;0.52;;;;;;;;;;5013537;28;20022;-81
2022/05/24 10:55:45;;;;;;;3.33;0.75;;;;;;;;;;5014616;28;20507;-81
2022/05/24 10:58:13;;;;;;;0.00;0.00;;;;;;;;;;5013675;28;20028;-81
2022/05/24 11:00:44;;;;;;;0.38;0.25;;;;;;;;;;5022273;28;20036;-81
2022/05/24 11:03:16;;;;;;;0.55;0.40;;;;;;;;;;5013321;28;20077;-79
2022/05/24 11:06:06;;;;;;;0.20;0.20;;;;;;;;;;5013409;28;20026;-81
2022/05/24 11:08:39;;;;;;;0.55;0.30;;;;;;;;;;5013820;28;20130;-82
2022/05/24 11:11:06;;;;;;;;;;;;;;;;;;5013572;28;20025;-81
2022/05/24 11:13:44;;;;;;;1.42;0.30;;;;;;;;;;5012559;28;19909;-82
2022/05/24 11:16:20;;;;;;;0.45;0.30;;;;;;;;;;5016094;28;20455;-82
2022/05/24 11:18:46;;;;;;;1.02;0.93;;;;;;;;;;5016904;28;20026;-82
2022/05/24 11:21:25;;;;;;;0.00;0.00;;;;;;;;;;5015675;28;20045;-82
2022/05/24 11:23:57;;;;;;;0.10;0.10;;;;;;;;;;5017148;28;20504;-82
2022/05/24 11:26:28;;;;;;;0.75;0.32;;;;;;;;;;5017818;28;20061;-84
2022/05/24 11:28:58;;;;;;;0.00;0.00;;;;;;;;;;5017547;28;20037;-81
2022/05/24 11:31:29;;;;;;;0.08;0.08;;;;;;;;;;5016690;28;20041;-82
2022/05/24 11:33:57;;;;;;;0.63;0.32;;;;;;;;;;5016905;28;20029;-83
2022/05/24 11:36:36;;;;;;;0.00;0.00;;;;;;;;;;5016067;28;20450;-82
2022/05/24 11:39:24;;;;;;;0.08;0.00;;;;;;;;;;5016227;28;20087;-83
2022/05/24 11:42:21;;;;;;;0.35;0.35;;;;;;;;;;5015375;28;20014;-82
2022/05/24 11:44:49;;;;;;;6.55;0.73;;;;;;;;;;5018001;28;20029;-82
2022/05/24 11:47:37;;;;;;;1.38;0.88;;;;;;;;;;5016583;28;20423;-81
2022/05/24 11:50:37;;;;;;;1.55;0.60;;;;;;;;;;5016233;28;20034;-82
2022/05/24 11:53:19;;;;;;;4.47;1.50;;;;;;;;;;5015410;28;20041;-82
2022/05/24 11:55:44;;;;;;;5.60;0.57;;;;;;;;;;5017404;28;20076;-82
2022/05/24 11:58:18;;;;;;;0.45;0.32;;;;;;;;;;5016512;28;20029;-82
2022/05/24 12:00:59;;;;;;;0.00;0.00;;;;;;;;;;5032329;28;20050;-82
2022/05/24 12:09:23;;;;;;;0.15;0.15;;;;;;;;;;5016679;28;20478;-83
2022/05/24 12:12:21;;;;;;;0.30;0.20;;;;;;;;;;5015124;28;20064;-82
2022/05/24 12:14:46;;;;;;;1.20;0.28;;;;;;;;;;5015819;28;20026;-83
2022/05/24 12:17:17;;;;;;;5.60;2.63;;;;;;;;;;5015565;28;20076;-81
2022/05/24 12:19:51;;;;;;;2.28;0.98;;;;;;;;;;5015642;28;20406;-82
2022/05/24 12:22:22;;;;;;;0.70;0.70;;;;;;;;;;4999266;28;20076;-81
2022/05/24 12:24:51;;;;;;;2.08;0.43;;;;;;;;;;5015665;28;20064;-81
2022/05/24 12:27:46;;;;;;;1.02;0.77;;;;;;;;;;5015092;28;20376;-81
2022/05/24 12:30:28;;;;;;;0.10;0.10;;;;;;;;;;5015920;28;20029;-83
2022/05/24 12:32:56;;;;;;;0.88;0.40;;;;;;;;;;5016367;28;20360;-82
2022/05/24 12:35:23;;;;;;;0.43;0.20;;;;;;;;;;5016334;28;20058;-83
2022/05/24 12:37:52;;;;;;;2.22;0.85;;;;;;;;;;5016251;28;20526;-83
2022/05/24 12:40:17;;;;;;;9.27;1.00;;;;;;;;;;5014809;28;20032;-81
2022/05/24 12:42:51;;;;;;;0.00;0.00;;;;;;;;;;5016203;28;20021;-81
2022/05/24 12:45:26;;;;;;;1.90;1.23;;;;;;;;;;5014922;28;20084;-82
2022/05/24 12:47:54;;;;;;;4.35;1.73;;;;;;;;;;5015098;28;20418;-81
2022/05/24 12:50:35;;;;;;;0.55;0.55;;;;;;;;;;4993239;28;20017;-79
2022/05/24 12:53:04;;;;;;;0.10;0.10;;;;;;;;;;5015247;28;20041;-82
2022/05/24 12:58:24;;;;;;;0.30;0.30;;;;;;;;;;5014473;28;20041;-80
2022/05/24 13:00:51;;;;;;;2.45;1.48;;;;;;;;;;5013225;28;20045;-81
2022/05/24 13:03:22;;;;;;;0.40;0.32;;;;;;;;;;5022634;28;20025;-82
2022/05/24 13:05:53;;;;;;;1.42;1.10;;;;;;;;;;5034514;28;20030;-80
2022/05/24 13:08:18;;;;;;;0.50;0.50;;;;;;;;;;5034241;28;20025;-79
2022/05/24 13:10:47;;;;;;;0.00;0.00;;;;;;;;;;5034505;28;20036;-80
2022/05/24 13:13:21;;;;;;;2.30;0.65;;;;;;;;;;5017811;28;20116;-81
2022/05/24 13:15:59;;;;;;;0.10;0.10;;;;;;;;;;5035212;28;20025;-80
2022/05/24 13:18:27;;;;;;;0.00;0.00;;;;;;;;;;5014115;28;20499;-79
2022/05/24 13:20:59;;;;;;;0.00;0.00;;;;;;;;;;5015577;28;20057;-81
2022/05/24 13:23:29;;;;;;;0.08;0.08;;;;;;;;;;5014172;28;20022;-80
2022/05/24 13:25:57;;;;;;;0.90;0.60;;;;;;;;;;5014323;28;20036;-80
2022/05/24 13:28:44;;;;;;;1.00;0.80;;;;;;;;;;5014833;28;20050;-80
2022/05/24 13:34:11;;;;;;;0.10;0.10;;;;;;;;;;4995809;28;20045;-78
2022/05/24 13:36:48;;;;;;;0.25;0.25;;;;;;;;;;5027116;28;20052;-80
2022/05/24 13:39:19;;;;;;;0.35;0.32;;;;;;;;;;5034511;28;20033;-81
2022/05/24 13:41:57;;;;;;;0.15;0.15;;;;;;;;;;5034473;28;20104;-80
2022/05/24 13:44:24;;;;;;;0.20;0.20;;;;;;;;;;5034079;28;20017;-80
2022/05/24 13:47:12;;;;;;;0.10;0.10;;;;;;;;;;5033386;28;20500;-79
2022/05/24 13:49:48;;;;;;;0.52;0.52;;;;;;;;;;5024628;28;20077;-81
2022/05/24 13:52:28;;;;;;;1.55;0.73;;;;;;;;;;5008635;28;20033;-76
2022/05/24 13:55:23;;;;;;;0.00;0.00;;;;;;;;;;5014073;28;20108;-77
2022/05/24 13:57:55;;;;;;;0.25;0.25;;;;;;;;;;5012852;28;20038;-77
2022/05/24 14:00:25;;;;;;;0.45;0.30;;;;;;;;;;5004730;28;20030;-78
2022/05/24 14:03:07;;;;;;;0.13;0.13;;;;;;;;;;5046043;28;20018;-79
2022/05/24 14:05:34;;;;;;;0.13;0.10;;;;;;;;;;5034793;28;20035;-81
2022/05/24 14:08:00;;;;;;;0.10;0.10;;;;;;;;;;5033292;28;20021;-78
2022/05/24 14:10:25;;;;;;;0.85;0.52;;;;;;;;;;5010387;28;20100;-79
2022/05/24 14:12:54;;;;;;;0.25;0.25;;;;;;;;;;5016142;28;20435;-77
2022/05/24 14:15:20;;;;;;;1.45;0.93;;;;;;;;;;5033514;28;20036;-78
2022/05/24 14:17:45;;;;;;;0.10;0.10;;;;;;;;;;5035645;28;20021;-77
2022/05/24 14:20:10;;;;;;;1.65;0.95;;;;;;;;;;5015791;28;20402;-77
2022/05/24 14:22:36;;;;;;;0.35;0.20;;;;;;;;;;5025998;28;20018;-79
2022/05/24 14:25:02;;;;;;;0.50;0.50;;;;;;;;;;5011761;28;20030;-78
2022/05/24 14:27:29;;;;;;;0.10;0.10;;;;;;;;;;5025501;28;20036;-76
2022/05/24 14:29:55;;;;;;;0.30;0.30;;;;;;;;;;5013320;28;20037;-77
2022/05/24 14:32:20;;;;;;;0.95;0.88;;;;;;;;;;5015134;28;20383;-77
2022/05/24 14:34:48;;;;;;;0.43;0.43;;;;;;;;;;5034045;28;20025;-78
2022/05/24 14:37:15;;;;;;;0.00;0.00;;;;;;;;;;5023398;28;20367;-78
2022/05/24 14:39:41;;;;;;;0.20;0.20;;;;;;;;;;5014326;28;20040;-78
2022/05/24 14:42:06;;;;;;;0.10;0.10;;;;;;;;;;5019068;28;20026;-78
2022/05/24 14:44:36;;;;;;;0.10;0.10;;;;;;;;;;5014425;28;20056;-77
2022/05/24 14:47:02;;;;;;;0.30;0.30;;;;;;;;;;5013801;28;20037;-78
2022/05/24 14:49:30;;;;;;;0.10;0.10;;;;;;;;;;5015115;28;20344;-77
2022/05/24 14:52:04;;;;;;;0.20;0.20;;;;;;;;;;5016701;28;20045;-78
2022/05/24 14:54:29;;;;;;;0.00;0.00;;;;;;;;;;5009677;28;20033;-77
2022/05/24 14:56:55;;;;;;;0.03;0.03;;;;;;;;;;5020046;28;20037;-78
2022/05/24 14:59:25;;;;;;;0.10;0.10;;;;;;;;;;5017841;28;20119;-78
2022/05/24 15:01:51;;;;;;;0.00;0.00;;;;;;;;;;5017766;28;20109;-77
2022/05/24 15:04:16;;;;;;;0.10;0.10;;;;;;;;;;5003324;28;20050;-76
2022/05/24 15:06:44;;;;;;;0.15;0.10;;;;;;;;;;5019525;28;20032;-78
2022/05/24 15:17:34;;;;;;;0.32;0.10;;;;;;;;;;5016846;28;20083;-76
2022/05/24 15:20:07;;;;;;;0.50;0.50;;;;;;;;;;5016499;28;20041;-77
2022/05/24 15:22:36;;;;;;;0.03;0.03;;;;;;;;;;5016704;28;20018;-80
2022/05/24 15:25:07;;;;;;;0.20;0.20;;;;;;;;;;5015677;28;20017;-77
2022/05/24 15:27:35;;;;;;;0.20;0.20;;;;;;;;;;5017676;28;20121;-76
2022/05/24 15:30:05;;;;;;;0.00;0.00;;;;;;;;;;5015763;28;20176;-77
2022/05/24 15:32:31;;;;;;;0.00;0.00;;;;;;;;;;5015323;28;20045;-75
2022/05/24 15:34:56;;;;;;;0.15;0.15;;;;;;;;;;4997363;28;20570;-78
2022/05/24 15:37:24;;;;;;;0.30;0.30;;;;;;;;;;5017408;28;20064;-78
2022/05/24 15:39:49;;;;;;;0.08;0.08;;;;;;;;;;5016488;28;20049;-75
2022/05/24 15:42:14;;;;;;;0.03;0.03;;;;;;;;;;5016464;28;20454;-77
2022/05/24 15:44:42;;;;;;;0.43;0.38;;;;;;;;;;5016897;28;20133;-77
2022/05/24 15:47:10;;;;;;;0.00;0.00;;;;;;;;;;5016977;28;20439;-77
2022/05/24 15:49:35;;;;;;;0.40;0.10;;;;;;;;;;5014017;28;20044;-77
2022/05/24 15:52:01;;;;;;;0.32;0.30;;;;;;;;;;5021815;28;20117;-77
2022/05/24 15:54:26;;;;;;;0.22;0.22;;;;;;;;;;5015547;28;20109;-77
2022/05/24 15:56:52;;;;;;;0.13;0.13;;;;;;;;;;5019846;28;20017;-77